Port Chicago — AAHV — position and weather

sailwx.info

Track history (hours):
 
Tides and Currents Weather Stations Pressure Air Temp Water Temp Dewpoint Dewpoint Depression Visibility Wind Speed Wind Dir Waves Ship Positions

Port Chicago

Last reported at 2017-Oct-18 20:11 UTC. Time now 2017-Oct-20 05:34 UTC.
Position N 38°03' W 122°02'.

Length 23 m; draft 1 m.

Type: SAR. MMSI: 369970891.

Date/timePositionNaut miles runAvg speedWind from/ knotsBaromVisibWave heightAir tempDewpointWater temp
2017-Oct-18 20:11N 38°03' W 122°02'0 0.0
2017-Oct-18 19:53N 38°03' W 122°02'0 0.0
2017-Oct-18 19:27N 38°03' W 122°02'2 3.9
2017-Oct-18 19:00N 38°04' W 122°00'0 0.6
2017-Oct-18 18:30N 38°03' W 121°60'1 2.7
2017-Oct-18 17:59N 38°04' W 122°02'  
2017-Oct-14 18:12N 38°04' W 121°59'6 7.6
2017-Oct-14 17:23N 38°03' W 122°06'3 8.6
2017-Oct-14 17:00N 38°03' W 122°10'  
Track history (hours):
 
Tides and Currents Weather Stations Pressure Air Temp Water Temp Dewpoint Dewpoint Depression Visibility Wind Speed Wind Dir Waves Ship Positions

Port Chicago

Last reported at 2017-Oct-18 20:11 UTC. Time now 2017-Oct-20 05:34 UTC.
Position N 38°03' W 122°02'.

Length 23 m; draft 1 m.

Type: SAR. MMSI: 369970891.

Date/timePositionNaut miles runAvg speedWind from/ knotsBaromVisibWave heightAir tempDewpointWater temp
2017-Oct-18 20:11N 38°03' W 122°02'0 0.0
2017-Oct-18 19:53N 38°03' W 122°02'0 0.0
2017-Oct-18 19:27N 38°03' W 122°02'2 3.9
2017-Oct-18 19:00N 38°04' W 122°00'0 0.6
2017-Oct-18 18:30N 38°03' W 121°60'1 2.7
2017-Oct-18 17:59N 38°04' W 122°02'  
2017-Oct-14 18:12N 38°04' W 121°59'6 7.6
2017-Oct-14 17:23N 38°03' W 122°06'3 8.6
2017-Oct-14 17:00N 38°03' W 122°10'  

Dump ship's entire track history